createdAt,value
2022-09-02T00:00:48.025Z,20.69
2022-09-02T00:03:35.545Z,20.68
2022-09-02T00:06:21.485Z,20.68
2022-09-02T00:09:09.035Z,20.66
2022-09-02T00:11:56.506Z,20.67
2022-09-02T00:14:42.103Z,20.66
2022-09-02T00:17:28.155Z,20.65
2022-09-02T00:20:13.668Z,20.66
2022-09-02T00:22:59.991Z,20.64
2022-09-02T00:25:45.755Z,20.64
2022-09-02T00:28:31.073Z,20.64
2022-09-02T00:31:17.637Z,20.64
2022-09-02T00:34:04.766Z,20.64
2022-09-02T00:36:50.566Z,20.63
2022-09-02T00:39:37.088Z,20.62
2022-09-02T00:42:24.337Z,20.64
2022-09-02T00:45:11.216Z,20.62
2022-09-02T00:47:56.859Z,20.62
2022-09-02T00:50:42.557Z,20.60
2022-09-02T00:53:28.515Z,20.61
2022-09-02T00:56:20.557Z,20.60
2022-09-02T00:59:07.293Z,20.60
2022-09-02T01:01:52.901Z,20.60
2022-09-02T01:04:38.743Z,20.60
2022-09-02T01:07:27.273Z,20.64
2022-09-02T01:10:16.529Z,20.66
2022-09-02T01:13:10.216Z,20.69
2022-09-02T01:16:02.362Z,20.66
2022-09-02T01:18:51.189Z,20.67
2022-09-02T01:21:36.796Z,20.68
2022-09-02T01:24:26.075Z,20.67
2022-09-02T01:27:15.971Z,20.65
2022-09-02T01:30:01.954Z,20.65
2022-09-02T01:32:47.789Z,20.66
2022-09-02T01:35:33.106Z,20.65
2022-09-02T01:38:20.334Z,20.63
2022-09-02T01:41:06.675Z,20.62
2022-09-02T01:43:52.852Z,20.60
2022-09-02T01:46:38.607Z,20.59
2022-09-02T01:49:24.464Z,20.60
2022-09-02T01:52:09.786Z,20.58
2022-09-02T01:54:56.834Z,20.58
2022-09-02T01:57:42.084Z,20.58
2022-09-02T02:00:30.061Z,20.54
2022-09-02T02:03:15.933Z,20.55
2022-09-02T02:06:07.469Z,20.51
2022-09-02T02:08:55.615Z,20.50
2022-09-02T02:11:40.967Z,20.49
2022-09-02T02:14:26.342Z,20.47
2022-09-02T02:17:12.275Z,20.48
2022-09-02T02:19:58.698Z,20.46
2022-09-02T02:22:44.724Z,20.45
2022-09-02T02:25:30.331Z,20.45
2022-09-02T02:28:15.652Z,20.43
2022-09-02T02:31:01.528Z,20.43
2022-09-02T02:33:48.405Z,20.43
2022-09-02T02:36:35.322Z,20.38
2022-09-02T02:39:20.915Z,20.38
2022-09-02T02:42:07.260Z,20.36
2022-09-02T02:44:53.037Z,20.37
2022-09-02T02:47:46.153Z,20.39
2022-09-02T02:50:33.551Z,20.35
2022-09-02T02:53:19.454Z,20.34
2022-09-02T02:56:05.648Z,20.32
2022-09-02T02:58:51.455Z,20.31
2022-09-02T03:01:37.329Z,20.33
2022-09-02T03:04:24.536Z,20.30
2022-09-02T03:07:10.626Z,20.29
2022-09-02T03:09:56.032Z,20.31
2022-09-02T03:12:41.922Z,20.27
2022-09-02T03:15:27.971Z,20.28
2022-09-02T03:18:14.402Z,20.30
2022-09-02T03:21:00.519Z,20.23
2022-09-02T03:23:46.708Z,20.19
2022-09-02T03:26:32.887Z,20.20
2022-09-02T03:29:18.776Z,20.18
2022-09-02T03:32:05.046Z,20.16
2022-09-02T03:34:54.448Z,20.14
2022-09-02T03:37:39.962Z,20.12
2022-09-02T03:40:27.862Z,20.09
2022-09-02T03:43:15.036Z,20.04
2022-09-02T03:46:01.750Z,20.08
2022-09-02T03:48:47.829Z,20.07
2022-09-02T03:51:34.493Z,20.05
2022-09-02T03:54:19.884Z,20.03
2022-09-02T03:57:05.507Z,20.05
2022-09-02T03:59:51.988Z,19.98
2022-09-02T04:02:37.647Z,19.97
2022-09-02T04:05:24.495Z,19.94
2022-09-02T04:08:13.102Z,19.94
2022-09-02T04:10:58.394Z,19.97
2022-09-02T04:13:46.573Z,20.00
2022-09-02T04:16:36.217Z,20.02
2022-09-02T04:19:27.222Z,20.07
2022-09-02T04:22:12.700Z,20.07
2022-09-02T04:24:58.343Z,20.08
2022-09-02T04:27:43.586Z,20.08
2022-09-02T04:30:29.535Z,20.12
2022-09-02T04:33:15.391Z,20.15
2022-09-02T04:36:06.325Z,20.15
2022-09-02T04:38:53.967Z,20.19
2022-09-02T04:41:43.739Z,20.21
2022-09-02T04:44:32.020Z,20.23
2022-09-02T04:47:18.822Z,20.24
2022-09-02T04:50:04.553Z,20.27
2022-09-02T04:52:52.863Z,20.26
2022-09-02T04:55:41.162Z,20.26
2022-09-02T04:58:28.922Z,20.23
2022-09-02T05:01:21.161Z,20.20
2022-09-02T05:04:09.787Z,20.19
2022-09-02T05:07:01.970Z,20.17
2022-09-02T05:09:50.506Z,20.18
2022-09-02T05:12:37.172Z,20.14
2022-09-02T05:15:22.357Z,20.14
2022-09-02T05:18:07.595Z,20.11
2022-09-02T05:20:53.038Z,20.13
2022-09-02T05:23:38.925Z,20.12
2022-09-02T05:26:25.322Z,20.12
2022-09-02T05:29:13.584Z,20.11
2022-09-02T05:32:00.600Z,20.06
2022-09-02T05:34:46.162Z,20.03
2022-09-02T05:37:31.556Z,20.02
2022-09-02T05:40:22.563Z,20.03
2022-09-02T05:43:09.108Z,20.03
2022-09-02T05:45:55.515Z,20.03
2022-09-02T05:49:00.353Z,20.04
2022-09-02T05:51:49.501Z,20.01
2022-09-02T05:54:40.108Z,20.01
2022-09-02T05:57:28.942Z,20.00
2022-09-02T06:00:18.350Z,20.01
2022-09-02T06:03:19.463Z,20.01
2022-09-02T06:06:07.126Z,19.99
2022-09-02T06:08:56.010Z,20.00
2022-09-02T06:11:45.412Z,19.98
2022-09-02T06:14:33.594Z,19.97
2022-09-02T06:17:19.381Z,19.96
2022-09-02T06:20:09.022Z,19.98
2022-09-02T06:22:56.077Z,19.97
2022-09-02T06:25:45.152Z,19.97
2022-09-02T06:28:32.528Z,19.97
2022-09-02T06:31:22.129Z,19.97
2022-09-02T06:34:09.184Z,19.98
2022-09-02T06:36:55.045Z,19.99
2022-09-02T06:39:44.835Z,19.99
2022-09-02T06:42:35.310Z,19.99
2022-09-02T06:45:28.568Z,19.99
2022-09-02T06:48:17.378Z,20.00
2022-09-02T06:51:03.205Z,20.00
2022-09-02T06:53:50.055Z,20.00
2022-09-02T06:56:36.259Z,19.99
2022-09-02T06:59:22.250Z,19.99
2022-09-02T07:02:11.299Z,19.99
2022-09-02T07:05:10.490Z,20.02
2022-09-02T07:07:56.854Z,20.01
2022-09-02T07:10:42.819Z,20.02
2022-09-02T07:13:28.107Z,20.02
2022-09-02T07:16:20.428Z,20.03
2022-09-02T07:19:18.492Z,20.05
2022-09-02T07:22:06.987Z,20.04
2022-09-02T07:24:57.435Z,20.06
2022-09-02T07:27:45.767Z,20.09
2022-09-02T07:30:31.702Z,20.10
2022-09-02T07:33:23.837Z,20.08
2022-09-02T07:36:12.494Z,20.08
2022-09-02T07:39:00.220Z,20.10
2022-09-02T07:41:49.192Z,20.12
2022-09-02T07:44:36.767Z,20.11
2022-09-02T07:47:23.287Z,20.14
2022-09-02T07:50:20.709Z,20.14
2022-09-02T07:53:13.990Z,20.14
2022-09-02T07:56:00.383Z,20.17
2022-09-02T07:58:47.452Z,20.18
2022-09-02T08:01:34.410Z,20.19
2022-09-02T08:04:23.443Z,20.19
2022-09-02T08:07:09.211Z,20.22
2022-09-02T08:09:54.455Z,20.22
2022-09-02T08:12:41.661Z,20.22
2022-09-02T08:15:28.857Z,20.23
2022-09-02T08:18:20.947Z,20.24
2022-09-02T08:21:07.876Z,20.24
2022-09-02T08:23:53.167Z,20.28
2022-09-02T08:26:38.456Z,20.26
2022-09-02T08:29:23.917Z,20.27
2022-09-02T08:32:09.496Z,20.27
2022-09-02T08:34:55.442Z,20.27
2022-09-02T08:37:40.975Z,20.29
2022-09-02T08:40:34.982Z,20.30
2022-09-02T08:43:27.439Z,20.31
2022-09-02T08:46:16.639Z,20.29
2022-09-02T08:49:08.312Z,20.31
2022-09-02T08:52:01.070Z,20.32
2022-09-02T08:54:53.666Z,20.33
2022-09-02T08:57:44.244Z,20.34
2022-09-02T09:00:38.492Z,20.34
2022-09-02T09:03:30.429Z,20.34
2022-09-02T09:06:38.975Z,20.37
2022-09-02T09:09:33.215Z,20.35
2022-09-02T09:12:40.229Z,20.36
2022-09-02T09:15:35.663Z,20.35
2022-09-02T09:18:46.309Z,20.37
2022-09-02T09:21:33.330Z,20.39
2022-09-02T09:24:30.326Z,20.38
2022-09-02T09:27:18.938Z,20.38
2022-09-02T09:30:11.561Z,20.38
2022-09-02T09:33:01.354Z,20.39
2022-09-02T09:35:50.696Z,20.40
2022-09-02T09:38:38.551Z,20.39
2022-09-02T09:41:24.716Z,20.41
2022-09-02T09:44:10.392Z,20.40
2022-09-02T09:47:05.745Z,20.42
2022-09-02T09:50:08.540Z,20.45
2022-09-02T09:52:54.080Z,20.45
2022-09-02T09:55:52.716Z,20.48
2022-09-02T09:58:40.960Z,20.47
2022-09-02T10:01:31.647Z,20.46
2022-09-02T10:04:42.812Z,20.45
2022-09-02T10:07:45.246Z,20.45
2022-09-02T10:10:33.511Z,20.48
2022-09-02T10:13:27.144Z,20.43
2022-09-02T10:16:20.043Z,20.42
2022-09-02T10:19:33.039Z,20.41
2022-09-02T10:22:53.159Z,20.43
2022-09-02T10:25:50.441Z,20.43
2022-09-02T10:29:04.746Z,20.45
2022-09-02T10:32:17.524Z,20.46
2022-09-02T10:35:18.014Z,20.48
2022-09-02T10:38:22.018Z,20.46
2022-09-02T10:44:59.498Z,20.43
2022-09-02T10:48:02.977Z,20.40
2022-09-02T10:50:55.373Z,20.43
2022-09-02T10:53:54.347Z,20.41
2022-09-02T10:56:48.433Z,20.38
2022-09-02T10:59:41.462Z,20.40
2022-09-02T11:02:42.513Z,20.38
2022-09-02T11:05:33.746Z,20.37
2022-09-02T11:08:19.084Z,20.36
2022-09-02T11:11:26.347Z,20.37
2022-09-02T11:14:32.936Z,20.35
2022-09-02T11:17:42.402Z,20.35
2022-09-02T11:20:44.444Z,20.34
2022-09-02T11:23:43.917Z,20.32
2022-09-02T11:26:38.254Z,20.33
2022-09-02T11:29:33.537Z,20.31
2022-09-02T11:32:43.796Z,20.33
2022-09-02T11:35:34.950Z,20.33
2022-09-02T11:38:59.508Z,20.27
2022-09-02T11:42:03.385Z,20.31
2022-09-02T11:44:56.251Z,20.26
2022-09-02T11:48:10.851Z,20.25
2022-09-02T11:51:12.386Z,20.26
2022-09-02T11:54:03.126Z,20.23
2022-09-02T11:56:57.765Z,20.23
2022-09-02T11:59:52.052Z,20.25
2022-09-02T12:02:48.110Z,20.26
2022-09-02T12:05:37.360Z,20.27
2022-09-02T12:08:28.895Z,20.29
2022-09-02T12:11:45.329Z,20.26
2022-09-02T12:14:31.785Z,20.30
2022-09-02T12:17:40.062Z,20.34
2022-09-02T12:20:41.416Z,20.35
2022-09-02T12:23:48.704Z,20.37
2022-09-02T12:26:39.970Z,20.32
2022-09-02T12:29:26.364Z,20.30
2022-09-02T12:32:12.441Z,20.27
2022-09-02T12:35:09.101Z,20.27
2022-09-02T12:38:15.351Z,20.34
2022-09-02T12:41:12.960Z,20.41
2022-09-02T12:44:15.162Z,20.47
2022-09-02T12:47:04.951Z,20.53
2022-09-02T12:50:12.629Z,20.55
2022-09-02T12:53:31.254Z,20.58
2022-09-02T12:56:22.386Z,20.62
2022-09-02T12:59:07.801Z,20.66
2022-09-02T13:02:30.530Z,20.71
2022-09-02T13:05:35.591Z,20.75
2022-09-02T13:08:33.157Z,20.79
2022-09-02T13:11:37.669Z,20.83
2022-09-02T13:14:48.497Z,20.85
2022-09-02T13:18:01.465Z,20.85
2022-09-02T13:20:56.367Z,20.89
2022-09-02T13:23:56.808Z,20.93
2022-09-02T13:27:01.046Z,20.92
2022-09-02T13:30:11.528Z,20.89
2022-09-02T13:33:07.095Z,20.92
2022-09-02T13:35:59.212Z,20.93
2022-09-02T13:38:44.827Z,20.95
2022-09-02T13:41:33.922Z,20.98
2022-09-02T13:44:25.276Z,21.00
2022-09-02T13:47:16.393Z,21.01
2022-09-02T13:50:02.093Z,21.02
2022-09-02T13:53:49.303Z,21.06
2022-09-02T13:56:00.235Z,21.04
2022-09-02T13:58:53.360Z,21.04
2022-09-02T14:01:40.239Z,21.09
2022-09-02T14:04:27.202Z,21.10
2022-09-02T14:07:15.934Z,21.10
2022-09-02T14:10:06.094Z,21.13
2022-09-02T14:12:53.395Z,21.08
2022-09-02T14:15:39.638Z,21.11
2022-09-02T14:18:25.924Z,21.12
2022-09-02T14:21:19.735Z,21.14
2022-09-02T14:24:05.349Z,21.15
2022-09-02T14:26:54.166Z,21.15
2022-09-02T14:29:44.890Z,21.15
2022-09-02T14:32:30.937Z,21.09
2022-09-02T14:35:22.238Z,21.09
2022-09-02T14:38:23.489Z,21.16
2022-09-02T14:41:18.301Z,21.15
2022-09-02T14:44:11.271Z,21.12
2022-09-02T14:47:06.641Z,21.11
2022-09-02T14:49:56.094Z,21.10
2022-09-02T14:52:48.635Z,21.12
2022-09-02T14:55:54.814Z,21.09
2022-09-02T14:58:40.187Z,21.11
2022-09-02T15:01:25.826Z,21.12
2022-09-02T15:04:11.637Z,21.07
2022-09-02T15:07:01.537Z,21.10
2022-09-02T15:09:50.940Z,21.14
2022-09-02T15:12:57.590Z,21.14
2022-09-02T15:15:42.983Z,21.12
2022-09-02T15:18:28.273Z,21.14
2022-09-02T15:21:14.069Z,21.12
2022-09-02T15:23:59.433Z,21.15
2022-09-02T15:26:44.674Z,21.12
2022-09-02T15:29:30.080Z,21.14
2022-09-02T15:32:15.810Z,21.13
2022-09-02T15:35:01.347Z,21.13
2022-09-02T15:37:50.414Z,21.14
2022-09-02T15:40:35.718Z,21.13
2022-09-02T15:43:21.426Z,21.14
2022-09-02T15:46:30.091Z,21.13
2022-09-02T15:49:16.364Z,21.10
2022-09-02T15:52:52.541Z,21.17
2022-09-02T15:55:37.775Z,21.15
2022-09-02T15:58:23.111Z,21.16
2022-09-02T16:01:09.459Z,21.18
2022-09-02T16:03:57.911Z,21.21
2022-09-02T16:06:45.444Z,21.20
2022-09-02T16:09:30.950Z,21.22
2022-09-02T16:12:16.487Z,21.23
2022-09-02T16:15:02.056Z,21.24
2022-09-02T16:17:47.792Z,21.23
2022-09-02T16:20:33.136Z,21.21
2022-09-02T16:23:18.622Z,21.25
2022-09-02T16:26:25.698Z,21.25
2022-09-02T16:29:14.101Z,21.24
2022-09-02T16:32:23.737Z,21.27
2022-09-02T16:35:05.190Z,21.29
2022-09-02T16:37:50.951Z,21.32
2022-09-02T16:40:36.575Z,21.31
2022-09-02T16:43:22.479Z,21.32
2022-09-02T16:46:07.919Z,21.34
2022-09-02T16:48:53.339Z,21.34
2022-09-02T16:51:41.039Z,21.35
2022-09-02T16:54:31.410Z,21.37
2022-09-02T16:57:17.692Z,21.35
2022-09-02T17:00:04.250Z,21.32
2022-09-02T17:02:49.753Z,21.31
2022-09-02T17:05:35.461Z,21.31
2022-09-02T17:08:21.274Z,21.32
2022-09-02T17:11:22.055Z,21.28
2022-09-02T17:14:15.194Z,21.31
2022-09-02T17:17:02.284Z,21.27
2022-09-02T17:19:47.514Z,21.28
2022-09-02T17:22:33.168Z,21.31
2022-09-02T17:25:18.833Z,21.29
2022-09-02T17:28:03.877Z,21.33
2022-09-02T17:30:49.284Z,21.34
2022-09-02T17:33:36.002Z,21.34
2022-09-02T17:36:22.598Z,21.32
2022-09-02T17:39:11.514Z,21.32
2022-09-02T17:41:59.856Z,21.33
2022-09-02T17:44:45.635Z,21.35
2022-09-02T17:47:31.843Z,21.34
2022-09-02T17:50:18.040Z,21.32
2022-09-02T17:53:03.672Z,21.31
2022-09-02T17:55:54.620Z,21.34
2022-09-02T17:58:55.084Z,21.31
2022-09-02T18:01:58.103Z,21.30
2022-09-02T18:04:59.256Z,21.31
2022-09-02T18:08:08.973Z,21.30
2022-09-02T18:11:03.227Z,21.33
2022-09-02T18:13:48.577Z,21.31
2022-09-02T18:17:14.021Z,21.33
2022-09-02T18:20:09.462Z,21.28
2022-09-02T18:23:26.148Z,21.29
2022-09-02T18:26:30.384Z,21.29
2022-09-02T18:29:16.191Z,21.30
2022-09-02T18:32:19.177Z,21.30
2022-09-02T18:35:46.431Z,21.31
2022-09-02T18:39:10.861Z,21.30
2022-09-02T18:42:15.047Z,21.30
2022-09-02T18:45:20.873Z,21.28
2022-09-02T18:48:13.432Z,21.30
2022-09-02T18:51:06.706Z,21.32
2022-09-02T18:53:59.400Z,21.36
2022-09-02T18:56:55.839Z,21.39
2022-09-02T19:00:23.050Z,21.45
2022-09-02T19:03:11.077Z,21.39
2022-09-02T19:05:57.694Z,21.39
2022-09-02T19:08:48.142Z,21.35
2022-09-02T19:11:38.792Z,21.38
2022-09-02T19:14:31.646Z,21.35
2022-09-02T19:17:30.246Z,21.38
2022-09-02T19:20:18.172Z,21.34
2022-09-02T19:23:09.326Z,21.33
2022-09-02T19:26:18.221Z,21.28
2022-09-02T19:29:22.522Z,21.26
2022-09-02T19:32:18.192Z,21.29
2022-09-02T19:35:13.670Z,21.27
2022-09-02T19:38:12.845Z,21.26
2022-09-02T19:41:06.956Z,21.25
2022-09-02T19:43:55.344Z,21.21
2022-09-02T19:50:09.172Z,21.14
2022-09-02T19:52:55.980Z,21.13
2022-09-02T19:55:44.634Z,21.08
2022-09-02T19:58:35.747Z,21.08
2022-09-02T20:01:34.028Z,21.07
2022-09-02T20:04:23.091Z,21.08
2022-09-02T20:07:13.798Z,21.08
2022-09-02T20:10:03.276Z,21.04
2022-09-02T20:12:56.945Z,21.02
2022-09-02T20:15:56.285Z,21.04
2022-09-02T20:19:11.323Z,21.04
2022-09-02T20:22:01.101Z,21.02
2022-09-02T20:25:16.075Z,21.01
2022-09-02T20:28:35.563Z,21.00
2022-09-02T20:31:55.397Z,20.99
2022-09-02T20:35:25.290Z,20.96
2022-09-02T20:38:50.780Z,20.96
2022-09-02T20:42:01.978Z,20.94
2022-09-02T20:45:17.037Z,20.94
2022-09-02T20:48:27.816Z,20.92
2022-09-02T20:52:12.068Z,20.90
2022-09-02T20:55:19.974Z,20.92
2022-09-02T20:58:37.530Z,20.90
2022-09-02T21:01:48.413Z,20.89
2022-09-02T21:05:05.932Z,20.89
2022-09-02T21:08:27.134Z,20.86
2022-09-02T21:11:25.724Z,20.86
2022-09-02T21:14:59.945Z,20.85
2022-09-02T21:17:54.437Z,20.85
2022-09-02T21:21:03.925Z,20.82
2022-09-02T21:24:03.727Z,20.82
2022-09-02T21:27:00.003Z,20.82
2022-09-02T21:30:25.450Z,20.79
2022-09-02T21:33:38.676Z,20.80
2022-09-02T21:36:30.713Z,20.79
2022-09-02T21:39:23.621Z,20.77
2022-09-02T21:42:39.562Z,20.76
2022-09-02T21:45:52.279Z,20.73
2022-09-02T21:52:06.148Z,20.70
2022-09-02T21:55:19.761Z,20.71
2022-09-02T21:58:45.075Z,20.70
2022-09-02T22:02:02.628Z,20.70
2022-09-02T22:05:08.572Z,20.68
2022-09-02T22:08:23.580Z,20.67
2022-09-02T22:11:16.892Z,20.66
2022-09-02T22:14:34.111Z,20.65
2022-09-02T22:17:26.095Z,20.65
2022-09-02T22:20:17.429Z,20.65
2022-09-02T22:23:15.653Z,20.65
2022-09-02T22:26:31.795Z,20.63
2022-09-02T22:29:32.196Z,20.62
2022-09-02T22:32:21.889Z,20.61
2022-09-02T22:35:18.530Z,20.61
2022-09-02T22:38:10.699Z,20.61
2022-09-02T22:40:56.297Z,20.60
2022-09-02T22:43:52.882Z,20.57
2022-09-02T22:47:10.648Z,20.57
2022-09-02T22:50:19.399Z,20.56
2022-09-02T22:53:04.687Z,20.55
2022-09-02T22:56:11.401Z,20.55
2022-09-02T22:59:03.652Z,20.55
2022-09-02T23:02:26.525Z,20.54
2022-09-02T23:05:31.768Z,20.56
2022-09-02T23:08:22.897Z,20.55
2022-09-02T23:11:13.093Z,20.52
2022-09-02T23:14:19.268Z,20.53
2022-09-02T23:17:20.258Z,20.50
2022-09-02T23:20:39.490Z,20.51
2022-09-02T23:23:31.716Z,20.50
2022-09-02T23:26:37.976Z,20.50
2022-09-02T23:29:26.529Z,20.50
2022-09-02T23:32:33.611Z,20.49
2022-09-02T23:35:24.167Z,20.48
2022-09-02T23:38:21.677Z,20.49
2022-09-02T23:41:10.541Z,20.48
2022-09-02T23:43:58.061Z,20.49
2022-09-02T23:46:52.268Z,20.48
2022-09-02T23:49:54.616Z,20.49
2022-09-02T23:52:57.662Z,20.47
2022-09-02T23:55:52.315Z,20.47
2022-09-02T23:58:47.293Z,20.47
